Estación Meteorológica Peña el Pijo (Robertgarden) [ 03/23/19 13:25:06 CET ]

Fecha Hora Presion(HPa) Temp (°C) Humedad % Rocio (°C) Viento ( m/s) Direccion Lluvia 1Hora(mm) Lluvia 24H(mm) LLuvia Total(mm)
2019-Mar-01 01:01:51 1015.500 6.3 56 -1.9         183.37
2019-Mar-01 02:04:08 1015.300 5.3 59 -2.1         183.37
2019-Mar-01 03:02:27 1014.800 4.5 62 -2.2         183.37
2019-Mar-01 04:02:07 1014.500 3.9 64 -2.3         183.37
2019-Mar-01 05:02:05 1014.200 3.6 66 -2.2         183.37
2019-Mar-01 06:02:26 1014.100 3.3 67 -2.3         183.37
2019-Mar-01 07:01:45 1014.100 2.1 69 -3.0         183.37
2019-Mar-01 08:01:38 1014.500 2.0 70 -2.9         183.37
2019-Mar-01 09:01:42 1014.600 4.6 72 -0.0         183.37
2019-Mar-01 10:01:46 1014.300 11.6 49 1.2         183.37
2019-Mar-01 11:01:41 1013.900 18.0 35 2.2         183.37
2019-Mar-01 12:01:35 1013.300 20.9 25 -0.1         183.37
2019-Mar-01 13:01:42 1012.700 21.4 23 -0.8         183.37
2019-Mar-01 14:01:48 1012.100 23.3 22 0.3         183.37
2019-Mar-01 15:01:40 1011.500 21.0 23 -1.1         183.37
2019-Mar-01 16:01:43 1011.400 21.3 21 -2.0         183.37
2019-Mar-01 17:01:39 1011.400 18.3 25 -2.3         183.37
2019-Mar-01 18:01:47 1011.400 16.6 31 -0.7         183.37
2019-Mar-01 19:01:57 1012.000 14.6 38 0.4         183.37
2019-Mar-01 20:02:04 1012.400 11.9 44 -0.1         183.37
2019-Mar-01 21:01:54 1013.000 9.6 48 -0.9         183.37
2019-Mar-01 22:01:53 1013.500 8.6 53 -0.5         183.37
2019-Mar-01 23:01:43 1013.700 9.2 52 -0.2         183.37

Temperatura Máxima:23°    Temperatura Mínima:
Presión Máxima:1015.500 Hpa    Presión Mínima:1011.400 Hpa


Volver